Terminal Aerodrome Forecast
Issued by NWS North Platte, NE

Home | Current Version | Previous Version | Text Only | Print | Product List | Glossary Off
Versions: 1 2 3 4 5 6 7 8 9 10 11 12 13 14 15 16 17 18 19 20 21 22 23

000
FTUS43 KLBF 060500 AAA
TAFVTN
TAF AMD
KVTN 060551Z 0606/0706 30014KT 6SM -SHRA BR BKN007 BKN014 OVC023
     FM060800 35018G24KT 4SM -SHRA BR BKN008 OVC015
     FM061000 34015G20KT P6SM -SHRA BKN008 OVC015
     FM061600 35015G20KT P6SM SCT015 OVC050
     FM070000 02011KT P6SM SCT100=

USA.gov is the U.S. government's official web portal to all federal, state and local government web resources and services.